createdAt,value
2022-08-26T00:02:07.793Z,100182.41
2022-08-26T00:04:36.341Z,100186.13
2022-08-26T00:07:05.296Z,100188.31
2022-08-26T00:09:38.927Z,100146.59
2022-08-26T00:12:12.123Z,100183.88
2022-08-26T00:14:41.356Z,100178.97
2022-08-26T00:17:09.404Z,100174.16
2022-08-26T00:19:37.832Z,100138.94
2022-08-26T00:22:06.025Z,100172.56
2022-08-26T00:24:34.330Z,100172.56
2022-08-26T00:27:02.335Z,100178.25
2022-08-26T00:29:34.913Z,100181.72
2022-08-26T00:32:05.837Z,100182.47
2022-08-26T00:34:34.214Z,100185.19
2022-08-26T00:37:02.597Z,100176.03
2022-08-26T00:39:31.355Z,100177.41
2022-08-26T00:42:00.532Z,100155.63
2022-08-26T00:44:28.643Z,100175.16
2022-08-26T00:47:03.881Z,100066.06
2022-08-26T00:49:39.583Z,100150.34
2022-08-26T00:52:11.989Z,100168.66
2022-08-26T00:54:46.934Z,100175.94
2022-08-26T00:57:18.672Z,100152.19
2022-08-26T00:59:50.101Z,100174.81
2022-08-26T01:02:21.081Z,100170.25
2022-08-26T01:04:55.966Z,100139.84
2022-08-26T01:07:27.570Z,100048.13
2022-08-26T01:09:59.982Z,100169.50
2022-08-26T01:12:30.196Z,100146.38
2022-08-26T01:14:57.858Z,100169.00
2022-08-26T01:17:27.581Z,100046.50
2022-08-26T01:20:02.491Z,100162.22
2022-08-26T01:22:35.705Z,100092.19
2022-08-26T01:25:07.134Z,100132.25
2022-08-26T01:27:36.832Z,100134.75
2022-08-26T01:30:07.411Z,100168.03
2022-08-26T01:32:36.500Z,100169.25
2022-08-26T01:35:08.731Z,100174.06
2022-08-26T01:37:40.446Z,100156.50
2022-08-26T01:40:17.859Z,100056.47
2022-08-26T01:42:47.395Z,100171.13
2022-08-26T01:45:20.819Z,100167.75
2022-08-26T01:47:56.806Z,100178.16
2022-08-26T01:50:30.680Z,100183.22
2022-08-26T01:53:02.107Z,100167.22
2022-08-26T01:55:34.023Z,100177.50
2022-08-26T01:58:06.767Z,100140.13
2022-08-26T02:00:36.553Z,100130.28
2022-08-26T02:03:22.387Z,100180.59
2022-08-26T02:05:55.857Z,100170.84
2022-08-26T02:08:30.155Z,100146.81
2022-08-26T02:11:00.088Z,100172.81
2022-08-26T02:13:31.458Z,100169.81
2022-08-26T02:16:00.890Z,100107.84
2022-08-26T02:18:30.672Z,100055.97
2022-08-26T02:20:58.764Z,100165.97
2022-08-26T02:23:28.182Z,100156.94
2022-08-26T02:26:03.866Z,100185.50
2022-08-26T02:28:38.564Z,100170.53
2022-08-26T02:31:07.187Z,100178.22
2022-08-26T02:33:36.468Z,100171.78
2022-08-26T02:36:05.688Z,100128.50
2022-08-26T02:38:37.256Z,100169.06
2022-08-26T02:41:10.173Z,100166.59
2022-08-26T02:43:38.356Z,100174.34
2022-08-26T02:46:07.406Z,100169.31
2022-08-26T02:48:35.495Z,100150.50
2022-08-26T02:51:03.884Z,100166.44
2022-08-26T02:53:35.629Z,100156.91
2022-08-26T02:56:04.811Z,100156.38
2022-08-26T02:58:34.662Z,100146.03
2022-08-26T03:01:04.846Z,100114.38
2022-08-26T03:03:34.189Z,100156.91
2022-08-26T03:06:02.376Z,100150.72
2022-08-26T03:08:30.336Z,100138.97
2022-08-26T03:10:58.964Z,100156.25
2022-08-26T03:13:29.877Z,100155.47
2022-08-26T03:16:01.423Z,100153.53
2022-08-26T03:18:31.015Z,100154.09
2022-08-26T03:20:59.541Z,100145.47
2022-08-26T03:23:27.849Z,100143.75
2022-08-26T03:25:56.851Z,100140.53
2022-08-26T03:28:27.046Z,100071.66
2022-08-26T03:30:54.541Z,100100.88
2022-08-26T03:33:23.995Z,100088.53
2022-08-26T03:35:53.310Z,100141.47
2022-08-26T03:38:22.527Z,100138.53
2022-08-26T03:40:50.537Z,100137.06
2022-08-26T03:43:18.698Z,100119.72
2022-08-26T03:45:46.733Z,100020.03
2022-08-26T03:48:14.946Z,100128.47
2022-08-26T03:50:44.705Z,100139.03
2022-08-26T03:53:13.379Z,100131.38
2022-08-26T03:55:43.337Z,100123.69
2022-08-26T03:58:12.305Z,100132.47
2022-08-26T04:00:40.366Z,100125.03
2022-08-26T04:03:09.941Z,100138.34
2022-08-26T04:05:39.063Z,100131.47
2022-08-26T04:08:08.547Z,100111.34
2022-08-26T04:10:38.913Z,100128.09
2022-08-26T04:13:07.525Z,100128.88
2022-08-26T04:15:35.754Z,100127.78
2022-08-26T04:18:04.351Z,100122.19
2022-08-26T04:20:32.507Z,100133.28
2022-08-26T04:23:00.625Z,100109.28
2022-08-26T04:25:30.378Z,100105.47
2022-08-26T04:27:59.010Z,100127.44
2022-08-26T04:30:27.661Z,100118.16
2022-08-26T04:32:55.783Z,100136.69
2022-08-26T04:35:25.921Z,100043.03
2022-08-26T04:37:55.313Z,100097.91
2022-08-26T04:40:24.079Z,100133.63
2022-08-26T04:42:55.718Z,100133.53
2022-08-26T04:45:25.471Z,100064.34
2022-08-26T04:47:56.446Z,100121.56
2022-08-26T04:50:25.800Z,100134.94
2022-08-26T04:52:55.062Z,100134.06
2022-08-26T04:55:25.214Z,100137.97
2022-08-26T04:58:10.231Z,100096.06
2022-08-26T05:00:39.647Z,100032.41
2022-08-26T05:03:10.594Z,100130.97
2022-08-26T05:05:41.142Z,100138.78
2022-08-26T05:08:10.039Z,100134.59
2022-08-26T05:10:43.810Z,100143.75
2022-08-26T05:13:15.590Z,100142.75
2022-08-26T05:15:44.753Z,100117.94
2022-08-26T05:18:14.293Z,100145.38
2022-08-26T05:20:43.299Z,100090.50
2022-08-26T05:23:11.263Z,100140.19
2022-08-26T05:25:41.434Z,100124.03
2022-08-26T05:28:10.394Z,100074.22
2022-08-26T05:30:40.442Z,100140.78
2022-08-26T05:33:09.439Z,100135.94
2022-08-26T05:35:39.380Z,100142.56
2022-08-26T05:38:12.634Z,100084.50
2022-08-26T05:40:47.281Z,100142.84
2022-08-26T05:43:15.819Z,100131.69
2022-08-26T05:45:49.919Z,100145.81
2022-08-26T05:48:22.649Z,100153.38
2022-08-26T05:50:54.274Z,100155.19
2022-08-26T05:53:25.921Z,100152.50
2022-08-26T05:55:55.493Z,100143.34
2022-08-26T05:58:24.383Z,100151.22
2022-08-26T06:01:00.355Z,100143.00
2022-08-26T06:03:29.371Z,100158.81
2022-08-26T06:05:57.611Z,100152.22
2022-08-26T06:08:25.728Z,100155.28
2022-08-26T06:10:55.768Z,100148.38
2022-08-26T06:13:26.801Z,100142.69
2022-08-26T06:15:56.649Z,100147.28
2022-08-26T06:18:32.532Z,100141.69
2022-08-26T06:21:00.846Z,100144.63
2022-08-26T06:23:47.409Z,100055.56
2022-08-26T06:26:16.967Z,100143.59
2022-08-26T06:28:45.810Z,100140.75
2022-08-26T06:31:14.558Z,100141.91
2022-08-26T06:33:44.590Z,100137.53
2022-08-26T06:36:16.595Z,100138.63
2022-08-26T06:38:47.641Z,100026.91
2022-08-26T06:41:15.887Z,100142.59
2022-08-26T06:43:43.966Z,100140.09
2022-08-26T06:46:14.123Z,100080.25
2022-08-26T06:48:43.527Z,100148.50
2022-08-26T06:51:14.727Z,100144.16
2022-08-26T06:53:45.561Z,100111.31
2022-08-26T06:56:15.047Z,100050.13
2022-08-26T06:58:43.102Z,100149.41
2022-08-26T07:01:19.700Z,100137.78
2022-08-26T07:03:51.853Z,100155.00
2022-08-26T07:06:22.884Z,100063.69
2022-08-26T07:08:53.398Z,100150.00
2022-08-26T07:11:22.745Z,100152.00
2022-08-26T07:13:52.199Z,100154.94
2022-08-26T07:16:20.424Z,100158.66
2022-08-26T07:18:52.965Z,100162.22
2022-08-26T07:21:22.339Z,100146.81
2022-08-26T07:23:52.348Z,100158.75
2022-08-26T07:26:23.217Z,100113.03
2022-08-26T07:28:54.912Z,100157.88
2022-08-26T07:31:24.883Z,100154.81
2022-08-26T07:33:54.874Z,100164.59
2022-08-26T07:36:24.181Z,100162.97
2022-08-26T07:38:53.503Z,100163.94
2022-08-26T07:41:24.189Z,100166.72
2022-08-26T07:43:52.609Z,100095.75
2022-08-26T07:46:27.153Z,100176.19
2022-08-26T07:49:00.129Z,100177.00
2022-08-26T07:51:28.207Z,100171.88
2022-08-26T07:53:56.691Z,100070.81
2022-08-26T07:56:25.569Z,100093.50
2022-08-26T07:58:54.377Z,100152.84
2022-08-26T08:01:24.114Z,100160.75
2022-08-26T08:03:53.306Z,100178.31
2022-08-26T08:06:27.152Z,100160.47
2022-08-26T08:08:55.888Z,100176.69
2022-08-26T08:11:24.635Z,100173.50
2022-08-26T08:13:56.390Z,100177.16
2022-08-26T08:16:26.104Z,100175.91
2022-08-26T08:18:54.574Z,100174.81
2022-08-26T08:21:25.464Z,100181.34
2022-08-26T08:23:55.335Z,100181.75
2022-08-26T08:26:24.866Z,100181.06
2022-08-26T08:28:55.689Z,100154.13
2022-08-26T08:31:54.548Z,100180.03
2022-08-26T08:34:13.721Z,100175.38
2022-08-26T08:36:43.181Z,100175.84
2022-08-26T08:39:11.751Z,100174.81
2022-08-26T08:41:52.761Z,100163.06
2022-08-26T08:46:55.267Z,100167.38
2022-08-26T08:49:25.961Z,100167.94
2022-08-26T08:52:00.639Z,100096.22
2022-08-26T08:54:30.065Z,100167.41
2022-08-26T08:57:04.161Z,100157.59
2022-08-26T08:59:34.999Z,100170.91
2022-08-26T09:02:18.429Z,100143.25
2022-08-26T09:05:06.841Z,100153.16
2022-08-26T09:07:40.212Z,100158.69
2022-08-26T09:10:25.659Z,100156.91
2022-08-26T09:12:54.035Z,100154.28
2022-08-26T09:15:28.551Z,100157.91
2022-08-26T09:18:06.765Z,100101.00
2022-08-26T09:20:45.630Z,100150.66
2022-08-26T09:23:15.507Z,100153.16
2022-08-26T09:25:51.046Z,100156.78
2022-08-26T09:28:21.173Z,100152.50
2022-08-26T09:31:03.047Z,100123.09
2022-08-26T09:33:34.699Z,100139.94
2022-08-26T09:36:24.838Z,100149.13
2022-08-26T09:38:55.182Z,100145.38
2022-08-26T09:41:27.044Z,100147.44
2022-08-26T09:44:17.150Z,100143.03
2022-08-26T09:46:57.256Z,100114.03
2022-08-26T09:49:35.609Z,100135.84
2022-08-26T09:52:08.560Z,100133.84
2022-08-26T09:54:39.782Z,100125.31
2022-08-26T09:57:28.412Z,100132.75
2022-08-26T09:59:57.650Z,100053.31
2022-08-26T10:02:47.709Z,100128.13
2022-08-26T10:05:29.692Z,100123.63
2022-08-26T10:07:59.550Z,100127.81
2022-08-26T10:10:34.785Z,100115.63
2022-08-26T10:13:10.872Z,100110.22
2022-08-26T10:15:50.725Z,100086.00
2022-08-26T10:18:24.850Z,100086.44
2022-08-26T10:20:58.820Z,100098.41
2022-08-26T10:23:32.538Z,99961.19
2022-08-26T10:26:07.053Z,100014.56
2022-08-26T10:28:41.314Z,100077.59
2022-08-26T10:31:27.353Z,100075.81
2022-08-26T10:34:00.343Z,100079.91
2022-08-26T10:39:44.560Z,100058.69
2022-08-26T10:42:23.048Z,100060.41
2022-08-26T10:44:55.069Z,100071.38
2022-08-26T10:47:32.455Z,100065.38
2022-08-26T10:50:03.182Z,100061.50
2022-08-26T10:52:44.912Z,100066.00
2022-08-26T10:55:22.121Z,100066.94
2022-08-26T10:57:59.344Z,100068.56
2022-08-26T11:00:58.392Z,99987.44
2022-08-26T11:03:35.643Z,100050.44
2022-08-26T11:06:24.570Z,100059.56
2022-08-26T11:08:53.873Z,100061.59
2022-08-26T11:11:50.167Z,100060.00
2022-08-26T11:14:53.590Z,100055.06
2022-08-26T11:17:59.997Z,100047.56
2022-08-26T11:20:37.528Z,99914.88
2022-08-26T11:23:40.423Z,100038.31
2022-08-26T11:26:35.444Z,100047.53
2022-08-26T11:29:13.136Z,100022.13
2022-08-26T11:31:57.547Z,100047.31
2022-08-26T11:34:52.364Z,100049.69
2022-08-26T11:37:22.740Z,100038.94
2022-08-26T11:39:57.152Z,100042.78
2022-08-26T11:42:34.277Z,100048.00
2022-08-26T11:45:23.674Z,100038.28
2022-08-26T11:47:54.623Z,100048.75
2022-08-26T11:50:26.111Z,100043.69
2022-08-26T11:52:56.321Z,100043.13
2022-08-26T11:55:25.354Z,100039.44
2022-08-26T11:57:56.279Z,100009.72
2022-08-26T12:00:28.374Z,100020.28
2022-08-26T12:03:08.548Z,100037.88
2022-08-26T12:05:43.341Z,100039.25
2022-08-26T12:08:17.938Z,100036.41
2022-08-26T12:10:46.642Z,100032.31
2022-08-26T12:13:23.201Z,100041.47
2022-08-26T12:15:55.642Z,100040.59
2022-08-26T12:18:29.555Z,99966.34
2022-08-26T12:21:01.411Z,100043.19
2022-08-26T12:23:43.363Z,100040.75
2022-08-26T12:26:20.172Z,100016.34
2022-08-26T12:28:50.958Z,100028.63
2022-08-26T12:31:26.820Z,100030.28
2022-08-26T12:33:59.174Z,100010.78
2022-08-26T12:36:31.646Z,100028.63
2022-08-26T12:39:08.099Z,100028.47
2022-08-26T12:41:46.507Z,100035.63
2022-08-26T12:44:35.207Z,100024.22
2022-08-26T12:47:06.414Z,100020.66
2022-08-26T12:49:36.438Z,100008.91
2022-08-26T12:52:06.639Z,100006.47
2022-08-26T12:54:56.728Z,100017.03
2022-08-26T12:57:30.431Z,100016.28
2022-08-26T13:00:26.277Z,100012.88
2022-08-26T13:02:56.985Z,99994.03
2022-08-26T13:05:33.001Z,100007.22
2022-08-26T13:08:16.467Z,100006.69
2022-08-26T13:10:47.348Z,99998.75
2022-08-26T13:13:15.702Z,99997.91
2022-08-26T13:15:44.782Z,99982.59
2022-08-26T13:18:12.800Z,99980.69
2022-08-26T13:20:45.121Z,99965.91
2022-08-26T13:23:13.647Z,99913.19
2022-08-26T13:25:42.043Z,99939.88
2022-08-26T13:28:09.949Z,99986.41
2022-08-26T13:30:38.074Z,99971.81
2022-08-26T13:33:06.225Z,99994.16
2022-08-26T13:35:34.461Z,100004.94
2022-08-26T13:38:03.754Z,100001.59
2022-08-26T13:40:34.621Z,100011.03
2022-08-26T13:43:02.932Z,99994.13
2022-08-26T13:45:31.675Z,100007.34
2022-08-26T13:48:00.438Z,100003.16
2022-08-26T13:50:28.458Z,99988.22
2022-08-26T13:52:56.432Z,100005.97
2022-08-26T13:55:25.854Z,100013.69
2022-08-26T13:57:53.966Z,100014.06
2022-08-26T14:00:22.924Z,100009.16
2022-08-26T14:02:51.154Z,99999.91
2022-08-26T14:05:19.315Z,100012.41
2022-08-26T14:07:47.505Z,99985.09
2022-08-26T14:10:15.586Z,100001.22
2022-08-26T14:12:45.816Z,100000.84
2022-08-26T14:15:16.258Z,99983.56
2022-08-26T14:17:44.922Z,100010.25
2022-08-26T14:20:16.968Z,100015.88
2022-08-26T14:23:03.561Z,100017.94
2022-08-26T14:25:34.670Z,100039.03
2022-08-26T14:28:04.516Z,100036.09
2022-08-26T14:30:32.484Z,100022.47
2022-08-26T14:33:00.578Z,100015.09
2022-08-26T14:35:30.696Z,100008.91
2022-08-26T14:37:59.176Z,99998.22
2022-08-26T14:40:30.673Z,100004.75
2022-08-26T14:42:59.922Z,100002.00
2022-08-26T14:45:29.823Z,100004.06
2022-08-26T14:47:58.844Z,100021.91
2022-08-26T14:50:27.839Z,100028.91
2022-08-26T14:53:13.414Z,100029.13
2022-08-26T14:55:43.391Z,100004.91
2022-08-26T14:58:11.224Z,100001.72
2022-08-26T15:00:40.490Z,99964.56
2022-08-26T15:03:09.112Z,99983.50
2022-08-26T15:05:37.436Z,99984.84
2022-08-26T15:08:10.370Z,99982.44
2022-08-26T15:10:39.015Z,100004.81
2022-08-26T15:13:07.168Z,99992.47
2022-08-26T15:15:35.485Z,100003.13
2022-08-26T15:18:05.535Z,99966.00
2022-08-26T15:23:06.026Z,100004.28
2022-08-26T15:25:34.465Z,99993.81
2022-08-26T15:28:02.589Z,100013.41
2022-08-26T15:30:30.561Z,99983.88
2022-08-26T15:32:58.897Z,99950.03
2022-08-26T15:35:28.301Z,99910.06
2022-08-26T15:38:01.202Z,99999.97
2022-08-26T15:40:29.392Z,99995.13
2022-08-26T15:43:11.429Z,100007.53
2022-08-26T15:45:45.633Z,100006.88
2022-08-26T15:48:13.998Z,99990.75
2022-08-26T15:50:51.579Z,99999.72
2022-08-26T15:53:19.874Z,100007.91
2022-08-26T15:55:48.234Z,100013.22
2022-08-26T15:58:17.936Z,100007.59
2022-08-26T16:00:45.996Z,99917.78
2022-08-26T16:03:14.023Z,100016.69
2022-08-26T16:05:44.060Z,100023.75
2022-08-26T16:08:15.467Z,100029.91
2022-08-26T16:10:50.011Z,100039.53
2022-08-26T16:13:20.036Z,100031.97
2022-08-26T16:15:48.750Z,100052.25
2022-08-26T16:18:17.717Z,100059.59
2022-08-26T16:20:57.823Z,100023.47
2022-08-26T16:23:40.400Z,100061.56
2022-08-26T16:26:12.528Z,100063.09
2022-08-26T16:28:40.716Z,100022.72
2022-08-26T16:31:09.552Z,100061.34
2022-08-26T16:33:39.005Z,100069.63
2022-08-26T16:36:08.208Z,100072.25
2022-08-26T16:38:37.674Z,100065.84
2022-08-26T16:41:08.245Z,100076.50
2022-08-26T16:43:36.568Z,100037.16
2022-08-26T16:46:06.955Z,100070.66
2022-08-26T16:48:36.466Z,100066.03
2022-08-26T16:51:04.615Z,100004.47
2022-08-26T16:53:33.633Z,99950.47
2022-08-26T16:56:01.605Z,100042.25
2022-08-26T16:58:31.341Z,100064.16
2022-08-26T17:00:59.384Z,100066.50
2022-08-26T17:03:27.566Z,100062.28
2022-08-26T17:05:55.673Z,100059.94
2022-08-26T17:08:28.345Z,100063.78
2022-08-26T17:10:57.272Z,100068.53
2022-08-26T17:13:35.381Z,100028.03
2022-08-26T17:16:07.477Z,100074.78
2022-08-26T17:18:37.004Z,100075.38
2022-08-26T17:21:07.214Z,100077.72
2022-08-26T17:23:35.607Z,100063.47
2022-08-26T17:26:04.044Z,100060.88
2022-08-26T17:28:32.282Z,100069.91
2022-08-26T17:31:01.095Z,100069.97
2022-08-26T17:33:31.146Z,100036.56
2022-08-26T17:36:00.337Z,100078.09
2022-08-26T17:38:29.239Z,100066.09
2022-08-26T17:40:58.055Z,100079.22
2022-08-26T17:43:26.712Z,100058.31
2022-08-26T17:45:59.062Z,100085.22
2022-08-26T17:48:37.572Z,100082.13
2022-08-26T17:51:08.384Z,100099.66
2022-08-26T17:53:37.192Z,100096.56
2022-08-26T17:56:08.223Z,100070.03
2022-08-26T17:58:36.666Z,100117.56
2022-08-26T18:01:06.337Z,100100.09
2022-08-26T18:03:36.483Z,100113.69
2022-08-26T18:06:08.727Z,100118.97
2022-08-26T18:08:36.923Z,100114.72
2022-08-26T18:11:09.940Z,100113.75
2022-08-26T18:13:38.132Z,100041.59
2022-08-26T18:16:17.629Z,100134.06
2022-08-26T18:18:47.767Z,100140.25
2022-08-26T18:21:16.800Z,100144.25
2022-08-26T18:23:45.131Z,100138.94
2022-08-26T18:26:18.277Z,100143.53
2022-08-26T18:28:46.282Z,100154.31
2022-08-26T18:31:15.330Z,100141.06
2022-08-26T18:33:44.055Z,100002.88
2022-08-26T18:36:18.525Z,100141.78
2022-08-26T18:38:47.748Z,100132.16
2022-08-26T18:41:20.667Z,100157.00
2022-08-26T18:43:50.445Z,100149.84
2022-08-26T18:46:19.915Z,100087.28
2022-08-26T18:48:51.181Z,100154.00
2022-08-26T18:51:23.502Z,100121.50
2022-08-26T18:53:52.005Z,100097.34
2022-08-26T18:56:20.666Z,100095.50
2022-08-26T18:58:49.515Z,100142.09
2022-08-26T19:01:19.963Z,99935.19
2022-08-26T19:03:50.134Z,100136.63
2022-08-26T19:06:21.276Z,100147.53
2022-08-26T19:08:50.173Z,100159.28
2022-08-26T19:11:32.408Z,100150.09
2022-08-26T19:14:07.639Z,100153.84
2022-08-26T19:16:36.179Z,100152.97
2022-08-26T19:19:04.782Z,100153.69
2022-08-26T19:21:35.699Z,100152.88
2022-08-26T19:24:07.174Z,100152.56
2022-08-26T19:26:36.592Z,100160.84
2022-08-26T19:29:04.800Z,100165.16
2022-08-26T19:31:33.510Z,100154.88
2022-08-26T19:34:01.686Z,100148.09
2022-08-26T19:36:31.080Z,100159.72
2022-08-26T19:39:03.240Z,100145.16
2022-08-26T19:41:36.879Z,100141.00
2022-08-26T19:44:08.328Z,100153.53
2022-08-26T19:49:09.933Z,100148.25
2022-08-26T19:51:38.061Z,100153.09
2022-08-26T19:54:07.849Z,100156.53
2022-08-26T19:56:36.690Z,100164.88
2022-08-26T19:59:04.795Z,100167.59
2022-08-26T20:01:32.979Z,100140.31
2022-08-26T20:04:01.041Z,100177.38
2022-08-26T20:06:29.099Z,100125.72
2022-08-26T20:08:57.082Z,100183.84
2022-08-26T20:11:26.692Z,100159.09
2022-08-26T20:13:55.309Z,100180.81
2022-08-26T20:16:23.476Z,100191.25
2022-08-26T20:19:08.687Z,100167.34
2022-08-26T20:21:39.313Z,100197.19
2022-08-26T20:24:10.476Z,100150.75
2022-08-26T20:26:42.475Z,100182.78
2022-08-26T20:29:11.739Z,100171.19
2022-08-26T20:31:40.421Z,100199.66
2022-08-26T20:34:08.770Z,100202.22
2022-08-26T20:36:40.268Z,100194.75
2022-08-26T20:39:08.941Z,100167.69
2022-08-26T20:41:37.037Z,100191.16
2022-08-26T20:44:07.088Z,100189.00
2022-08-26T20:46:36.207Z,100194.22
2022-08-26T20:49:05.953Z,100191.75
2022-08-26T20:51:37.487Z,100202.75
2022-08-26T20:54:06.321Z,100206.78
2022-08-26T20:56:34.497Z,100107.19
2022-08-26T20:59:02.787Z,100198.44
2022-08-26T21:01:34.874Z,100215.25
2022-08-26T21:04:06.328Z,100210.28
2022-08-26T21:06:34.983Z,100196.84
2022-08-26T21:09:04.551Z,100213.16
2022-08-26T21:11:33.390Z,100197.75
2022-08-26T21:14:07.103Z,100210.69
2022-08-26T21:16:47.493Z,100024.63
2022-08-26T21:19:18.066Z,100233.91
2022-08-26T21:21:47.221Z,100131.59
2022-08-26T21:24:15.766Z,100239.06
2022-08-26T21:26:44.136Z,100235.53
2022-08-26T21:29:13.568Z,100227.47
2022-08-26T21:31:46.493Z,100228.50
2022-08-26T21:34:18.277Z,100231.63
2022-08-26T21:36:47.063Z,100241.78
2022-08-26T21:39:15.860Z,100243.31
2022-08-26T21:41:45.155Z,100247.72
2022-08-26T21:44:14.684Z,100252.72
2022-08-26T21:46:44.046Z,100159.69
2022-08-26T21:49:15.779Z,100259.22
2022-08-26T21:51:48.594Z,100262.19
2022-08-26T21:54:18.122Z,100266.53
2022-08-26T21:56:47.912Z,100269.84
2022-08-26T21:59:18.257Z,100265.69
2022-08-26T22:01:47.146Z,100266.66
2022-08-26T22:04:15.918Z,100263.19
2022-08-26T22:06:47.304Z,100253.75
2022-08-26T22:09:18.031Z,100264.94
2022-08-26T22:11:47.526Z,100251.59
2022-08-26T22:14:17.477Z,100269.66
2022-08-26T22:16:50.570Z,100256.59
2022-08-26T22:19:20.111Z,100252.84
2022-08-26T22:21:50.861Z,100246.28
2022-08-26T22:24:20.823Z,100251.78
2022-08-26T22:26:50.050Z,100251.78
2022-08-26T22:29:19.037Z,100254.66
2022-08-26T22:31:47.672Z,100119.06
2022-08-26T22:34:19.555Z,100249.06
2022-08-26T22:36:50.621Z,100250.94
2022-08-26T22:39:21.825Z,100213.88
2022-08-26T22:41:50.289Z,100179.25
2022-08-26T22:44:19.509Z,100244.28
2022-08-26T22:46:48.806Z,100237.38
2022-08-26T22:49:17.697Z,100212.41
2022-08-26T22:51:46.780Z,100230.97
2022-08-26T22:54:17.094Z,100224.75
2022-08-26T22:56:45.858Z,100237.38
2022-08-26T22:59:16.075Z,100218.59
2022-08-26T23:01:44.445Z,100224.78
2022-08-26T23:04:13.154Z,100229.97
2022-08-26T23:06:47.628Z,100231.81
2022-08-26T23:09:18.983Z,100231.06
2022-08-26T23:11:48.470Z,100227.13
2022-08-26T23:14:17.563Z,100223.28
2022-08-26T23:16:45.656Z,100202.13
2022-08-26T23:19:15.854Z,100132.06
2022-08-26T23:21:43.876Z,100224.41
2022-08-26T23:24:12.941Z,100218.09
2022-08-26T23:26:43.692Z,100217.59
2022-08-26T23:29:14.105Z,100203.97
2022-08-26T23:31:43.449Z,100175.19
2022-08-26T23:34:29.879Z,100203.97
2022-08-26T23:36:59.042Z,100203.59
2022-08-26T23:39:28.288Z,100199.53
2022-08-26T23:41:58.137Z,100141.47
2022-08-26T23:44:26.785Z,100190.38
2022-08-26T23:46:55.156Z,100189.78
2022-08-26T23:49:23.647Z,100192.34
2022-08-26T23:52:05.749Z,100178.53
2022-08-26T23:54:33.970Z,100183.22
2022-08-26T23:57:03.600Z,100185.81
2022-08-26T23:59:31.682Z,100191.25
